Список аэропортов
Фактическая погода:

15 августа, 23:30
Температура: +16°C (+15.7*)
Ветер: западный 3 м/с
Давление: *763 мм
неб. облачность
540 м
Время (МСК)Темп. СВетерВлажностьДавлениеОблачностьОсадки
21:00+19З, 3 м/с81%1016 гПас прояснениями
22:00+18З, 2 м/с87%1017 гПамалооблачно
23:00+17З, 2 м/с93%1017 гПас прояснениями
16 августа
00:00+16З, 1 м/с95%1017 гПас прояснениями
01:00+16ЮЗ, 1 м/с96%1018 гПас прояснениями
02:00+16ЮЗ, 1 м/с97%1018 гПас прояснениями
03:00+16ЮЗ, 1 м/с98%1018 гПас прояснениями
04:00+16ЮЗ, 1 м/с98%1018 гПас прояснениями
05:00+15Ю, 1 м/с99%1018 гПас прояснениями
06:00+15Ю, 1 м/с99%1019 гПаоблачно
07:00+16Ю, 1 м/с99%1019 гПаоблачно
08:00+17ЮЗ, 1 м/с97%1019 гПас прояснениями
09:00+19З, 1 м/с91%1020 гПамалооблачно
10:00+21З, 2 м/с75%1020 гПас прояснениями
11:00+22З, 2 м/с68%1020 гПас прояснениями
12:00+23З, 2 м/с63%1020 гПамалооблачно
13:00+24СЗ, 2 м/с61%1020 гПамалооблачно
14:00+24СЗ, 2 м/с60%1020 гПас прояснениями
15:00+23СЗ, 2 м/с62%1020 гПас прояснениями
16:00+22СЗ, 3 м/с67%1020 гПаоблачно
17:00+21СЗ, 3 м/с71%1020 гПаоблачно
18:00+20СЗ, 2 м/с75%1020 гПаоблачно
19:00+20С, 2 м/с78%1020 гПаоблачно
20:00+20С, 1 м/с80%1019 гПаоблачно
21:00+19СВ, 1 м/с83%1020 гПас прояснениями
22:00+18СВ, 1 м/с89%1020 гПас прояснениями
23:00+17СВ, 1 м/с93%1020 гПас прояснениями
17 августа
00:00+17В, 1 м/с96%1020 гПас прояснениями
01:00+17В, 1 м/с97%1020 гПас прояснениями
02:00+16В, 1 м/с98%1020 гПаоблачно
03:00+16В, 1 м/с99%1020 гПаоблачно
04:00+16ЮВ, 1 м/с99%1020 гПаоблачно
05:00+16ЮВ, 1 м/с99%1020 гПаоблачно
06:00+16ЮВ, 1 м/с99%1019 гПаоблачно
07:00+15ЮВ, 1 м/с99%1020 гПас прояснениями
08:00+16ЮВ, 1 м/с96%1020 гПамалооблачно
09:00+19ЮВ, 1 м/с89%1020 гПаясно
10:00+22В, 2 м/с69%1020 гПамалооблачно
11:00+24В, 2 м/с53%1019 гПамалооблачно
12:00+24В, 3 м/с50%1019 гПаоблачно
13:00+24В, 3 м/с50%1019 гПаоблачно
14:00+24В, 3 м/с48%1019 гПаоблачно
15:00+26В, 3 м/с47%1018 гПамалооблачно
16:00+25В, 3 м/с48%1018 гПас прояснениями
17:00+25В, 3 м/с48%1017 гПамалооблачно
18:00+25В, 3 м/с48%1017 гПас прояснениями
19:00+24В, 3 м/с50%1016 гПамалооблачно
20:00+23В, 2 м/с60%1016 гПамалооблачно
21:00+21В, 2 м/с71%1016 гПамалооблачно